sensor_id;sensor_type;location;lat;lon;timestamp;P1;durP1;ratioP1;P2;durP2;ratioP2
14907;SDS011;7545;52.092;7.006;2023-07-13T00:01:30;5.28;;;1.80;;
14907;SDS011;7545;52.092;7.006;2023-07-13T00:03:57;10.98;;;2.70;;
14907;SDS011;7545;52.092;7.006;2023-07-13T00:06:23;3.67;;;1.60;;
14907;SDS011;7545;52.092;7.006;2023-07-13T00:08:48;3.97;;;1.90;;
14907;SDS011;7545;52.092;7.006;2023-07-13T00:11:15;3.00;;;1.70;;
14907;SDS011;7545;52.092;7.006;2023-07-13T00:13:42;6.22;;;1.65;;
14907;SDS011;7545;52.092;7.006;2023-07-13T00:16:08;9.57;;;2.75;;
14907;SDS011;7545;52.092;7.006;2023-07-13T00:18:35;7.30;;;2.08;;
14907;SDS011;7545;52.092;7.006;2023-07-13T00:21:02;6.20;;;1.90;;
14907;SDS011;7545;52.092;7.006;2023-07-13T00:23:38;9.43;;;2.83;;
14907;SDS011;7545;52.092;7.006;2023-07-13T00:26:05;7.95;;;2.13;;
14907;SDS011;7545;52.092;7.006;2023-07-13T00:28:33;5.40;;;2.05;;
14907;SDS011;7545;52.092;7.006;2023-07-13T00:30:59;3.92;;;1.42;;
14907;SDS011;7545;52.092;7.006;2023-07-13T00:33:26;4.90;;;2.38;;
14907;SDS011;7545;52.092;7.006;2023-07-13T00:35:55;5.95;;;1.80;;
14907;SDS011;7545;52.092;7.006;2023-07-13T00:38:21;5.97;;;1.67;;
14907;SDS011;7545;52.092;7.006;2023-07-13T00:40:47;4.32;;;1.63;;
14907;SDS011;7545;52.092;7.006;2023-07-13T00:43:13;8.55;;;1.50;;
14907;SDS011;7545;52.092;7.006;2023-07-13T00:48:14;5.10;;;1.60;;
14907;SDS011;7545;52.092;7.006;2023-07-13T00:50:43;10.73;;;1.80;;
14907;SDS011;7545;52.092;7.006;2023-07-13T00:53:11;5.60;;;1.48;;
14907;SDS011;7545;52.092;7.006;2023-07-13T00:55:38;5.88;;;1.90;;
14907;SDS011;7545;52.092;7.006;2023-07-13T00:58:04;5.05;;;1.58;;
14907;SDS011;7545;52.092;7.006;2023-07-13T01:00:31;6.00;;;2.00;;
14907;SDS011;7545;52.092;7.006;2023-07-13T01:03:02;7.13;;;1.75;;
14907;SDS011;7545;52.092;7.006;2023-07-13T01:05:29;7.65;;;1.92;;
14907;SDS011;7545;52.092;7.006;2023-07-13T01:07:57;2.70;;;1.33;;
14907;SDS011;7545;52.092;7.006;2023-07-13T01:10:23;4.40;;;1.40;;
14907;SDS011;7545;52.092;7.006;2023-07-13T01:12:50;5.70;;;1.40;;
14907;SDS011;7545;52.092;7.006;2023-07-13T01:18:07;3.50;;;1.52;;
14907;SDS011;7545;52.092;7.006;2023-07-13T01:20:35;6.68;;;1.70;;
14907;SDS011;7545;52.092;7.006;2023-07-13T01:23:05;6.50;;;1.90;;
14907;SDS011;7545;52.092;7.006;2023-07-13T01:25:32;7.00;;;2.35;;
14907;SDS011;7545;52.092;7.006;2023-07-13T01:28:00;5.00;;;1.60;;
14907;SDS011;7545;52.092;7.006;2023-07-13T01:30:26;3.70;;;1.30;;
14907;SDS011;7545;52.092;7.006;2023-07-13T01:32:51;2.10;;;1.30;;
14907;SDS011;7545;52.092;7.006;2023-07-13T01:35:17;6.03;;;1.45;;
14907;SDS011;7545;52.092;7.006;2023-07-13T01:37:43;5.57;;;1.40;;
14907;SDS011;7545;52.092;7.006;2023-07-13T01:40:10;5.70;;;1.75;;
14907;SDS011;7545;52.092;7.006;2023-07-13T01:42:36;4.90;;;1.63;;
14907;SDS011;7545;52.092;7.006;2023-07-13T01:45:02;5.10;;;1.27;;
14907;SDS011;7545;52.092;7.006;2023-07-13T01:47:28;4.60;;;1.95;;
14907;SDS011;7545;52.092;7.006;2023-07-13T01:49:55;7.82;;;2.22;;
14907;SDS011;7545;52.092;7.006;2023-07-13T01:52:21;4.88;;;1.63;;
14907;SDS011;7545;52.092;7.006;2023-07-13T01:54:47;4.47;;;2.03;;
14907;SDS011;7545;52.092;7.006;2023-07-13T01:57:13;4.40;;;1.40;;
14907;SDS011;7545;52.092;7.006;2023-07-13T01:59:38;4.35;;;1.23;;
14907;SDS011;7545;52.092;7.006;2023-07-13T02:02:04;3.22;;;1.27;;
14907;SDS011;7545;52.092;7.006;2023-07-13T02:04:30;8.20;;;1.60;;
14907;SDS011;7545;52.092;7.006;2023-07-13T02:06:55;6.78;;;1.83;;
14907;SDS011;7545;52.092;7.006;2023-07-13T02:09:21;2.22;;;1.15;;
14907;SDS011;7545;52.092;7.006;2023-07-13T02:11:47;6.50;;;3.03;;
14907;SDS011;7545;52.092;7.006;2023-07-13T02:14:13;1.95;;;1.45;;
14907;SDS011;7545;52.092;7.006;2023-07-13T02:16:40;5.78;;;1.65;;
14907;SDS011;7545;52.092;7.006;2023-07-13T02:19:06;2.33;;;1.27;;
14907;SDS011;7545;52.092;7.006;2023-07-13T02:21:32;2.83;;;1.75;;
14907;SDS011;7545;52.092;7.006;2023-07-13T02:23:58;4.55;;;1.50;;
14907;SDS011;7545;52.092;7.006;2023-07-13T02:26:25;5.78;;;1.42;;
14907;SDS011;7545;52.092;7.006;2023-07-13T02:28:51;3.60;;;1.55;;
14907;SDS011;7545;52.092;7.006;2023-07-13T02:31:17;4.40;;;1.42;;
14907;SDS011;7545;52.092;7.006;2023-07-13T02:33:42;4.88;;;1.50;;
14907;SDS011;7545;52.092;7.006;2023-07-13T02:36:08;3.35;;;1.80;;
14907;SDS011;7545;52.092;7.006;2023-07-13T02:38:34;5.63;;;2.40;;
14907;SDS011;7545;52.092;7.006;2023-07-13T02:41:01;4.20;;;1.60;;
14907;SDS011;7545;52.092;7.006;2023-07-13T02:43:31;4.50;;;1.98;;
14907;SDS011;7545;52.092;7.006;2023-07-13T02:45:56;1.50;;;1.30;;
14907;SDS011;7545;52.092;7.006;2023-07-13T02:48:25;4.95;;;1.77;;
14907;SDS011;7545;52.092;7.006;2023-07-13T02:50:51;4.03;;;1.50;;
14907;SDS011;7545;52.092;7.006;2023-07-13T02:53:16;5.97;;;1.83;;
14907;SDS011;7545;52.092;7.006;2023-07-13T02:55:48;8.75;;;2.10;;
14907;SDS011;7545;52.092;7.006;2023-07-13T02:58:14;6.15;;;1.67;;
14907;SDS011;7545;52.092;7.006;2023-07-13T03:00:47;6.57;;;2.47;;
14907;SDS011;7545;52.092;7.006;2023-07-13T03:03:16;11.23;;;2.17;;
14907;SDS011;7545;52.092;7.006;2023-07-13T03:05:42;5.13;;;1.65;;
14907;SDS011;7545;52.092;7.006;2023-07-13T03:08:10;2.72;;;1.30;;
14907;SDS011;7545;52.092;7.006;2023-07-13T03:10:36;5.78;;;2.38;;
14907;SDS011;7545;52.092;7.006;2023-07-13T03:13:03;5.00;;;1.70;;
14907;SDS011;7545;52.092;7.006;2023-07-13T03:15:28;3.72;;;1.25;;
14907;SDS011;7545;52.092;7.006;2023-07-13T03:17:54;2.38;;;1.50;;
14907;SDS011;7545;52.092;7.006;2023-07-13T03:20:19;2.35;;;1.30;;
14907;SDS011;7545;52.092;7.006;2023-07-13T03:22:45;6.45;;;2.20;;
14907;SDS011;7545;52.092;7.006;2023-07-13T03:25:11;5.43;;;2.08;;
14907;SDS011;7545;52.092;7.006;2023-07-13T03:27:37;2.80;;;1.60;;
14907;SDS011;7545;52.092;7.006;2023-07-13T03:30:03;9.13;;;1.85;;
14907;SDS011;7545;52.092;7.006;2023-07-13T03:32:30;3.30;;;1.70;;
14907;SDS011;7545;52.092;7.006;2023-07-13T03:34:56;3.42;;;1.30;;
14907;SDS011;7545;52.092;7.006;2023-07-13T03:37:21;8.35;;;2.50;;
14907;SDS011;7545;52.092;7.006;2023-07-13T03:39:47;3.28;;;1.63;;
14907;SDS011;7545;52.092;7.006;2023-07-13T03:42:13;2.85;;;1.80;;
14907;SDS011;7545;52.092;7.006;2023-07-13T03:44:39;3.08;;;1.58;;
14907;SDS011;7545;52.092;7.006;2023-07-13T03:47:05;3.80;;;1.70;;
14907;SDS011;7545;52.092;7.006;2023-07-13T03:49:33;5.25;;;1.60;;
14907;SDS011;7545;52.092;7.006;2023-07-13T03:51:59;4.70;;;1.50;;
14907;SDS011;7545;52.092;7.006;2023-07-13T03:54:25;6.53;;;2.15;;
14907;SDS011;7545;52.092;7.006;2023-07-13T03:56:51;4.25;;;1.65;;
14907;SDS011;7545;52.092;7.006;2023-07-13T03:59:16;2.90;;;1.50;;
14907;SDS011;7545;52.092;7.006;2023-07-13T04:01:43;2.92;;;1.20;;
14907;SDS011;7545;52.092;7.006;2023-07-13T04:04:09;5.97;;;1.33;;
14907;SDS011;7545;52.092;7.006;2023-07-13T04:06:34;6.18;;;1.75;;
14907;SDS011;7545;52.092;7.006;2023-07-13T04:09:00;3.85;;;1.75;;
14907;SDS011;7545;52.092;7.006;2023-07-13T04:11:30;3.55;;;1.13;;
14907;SDS011;7545;52.092;7.006;2023-07-13T04:13:56;3.42;;;1.60;;
14907;SDS011;7545;52.092;7.006;2023-07-13T04:16:23;4.50;;;1.80;;
14907;SDS011;7545;52.092;7.006;2023-07-13T04:18:50;5.30;;;1.52;;
14907;SDS011;7545;52.092;7.006;2023-07-13T04:21:19;3.92;;;2.10;;
14907;SDS011;7545;52.092;7.006;2023-07-13T04:23:45;5.32;;;1.52;;
14907;SDS011;7545;52.092;7.006;2023-07-13T04:26:10;8.02;;;1.80;;
14907;SDS011;7545;52.092;7.006;2023-07-13T04:28:36;5.32;;;1.60;;
14907;SDS011;7545;52.092;7.006;2023-07-13T04:31:02;5.47;;;2.53;;
14907;SDS011;7545;52.092;7.006;2023-07-13T04:33:28;3.08;;;1.27;;
14907;SDS011;7545;52.092;7.006;2023-07-13T04:35:54;7.20;;;2.78;;
14907;SDS011;7545;52.092;7.006;2023-07-13T04:38:25;4.35;;;1.60;;
14907;SDS011;7545;52.092;7.006;2023-07-13T04:40:54;4.13;;;1.83;;
14907;SDS011;7545;52.092;7.006;2023-07-13T04:43:20;4.38;;;1.48;;
14907;SDS011;7545;52.092;7.006;2023-07-13T04:45:46;3.92;;;1.40;;
14907;SDS011;7545;52.092;7.006;2023-07-13T04:48:12;6.25;;;1.95;;
14907;SDS011;7545;52.092;7.006;2023-07-13T04:50:37;6.45;;;1.70;;
14907;SDS011;7545;52.092;7.006;2023-07-13T04:53:03;2.78;;;1.92;;
14907;SDS011;7545;52.092;7.006;2023-07-13T04:55:29;3.58;;;2.00;;
14907;SDS011;7545;52.092;7.006;2023-07-13T04:57:56;7.07;;;2.10;;
14907;SDS011;7545;52.092;7.006;2023-07-13T05:00:23;2.75;;;1.80;;
14907;SDS011;7545;52.092;7.006;2023-07-13T05:02:50;6.38;;;1.55;;
14907;SDS011;7545;52.092;7.006;2023-07-13T05:05:17;6.35;;;2.00;;
14907;SDS011;7545;52.092;7.006;2023-07-13T05:07:42;2.10;;;1.42;;
14907;SDS011;7545;52.092;7.006;2023-07-13T05:10:08;5.35;;;1.63;;
14907;SDS011;7545;52.092;7.006;2023-07-13T05:12:34;3.50;;;1.88;;
14907;SDS011;7545;52.092;7.006;2023-07-13T05:15:00;6.57;;;1.92;;
14907;SDS011;7545;52.092;7.006;2023-07-13T05:17:27;6.07;;;2.08;;
14907;SDS011;7545;52.092;7.006;2023-07-13T05:19:53;4.93;;;1.60;;
14907;SDS011;7545;52.092;7.006;2023-07-13T05:22:19;5.53;;;1.80;;
14907;SDS011;7545;52.092;7.006;2023-07-13T05:24:44;5.97;;;1.90;;
14907;SDS011;7545;52.092;7.006;2023-07-13T05:27:10;6.32;;;2.00;;
14907;SDS011;7545;52.092;7.006;2023-07-13T05:29:36;7.93;;;2.72;;
14907;SDS011;7545;52.092;7.006;2023-07-13T05:32:01;7.80;;;2.08;;
14907;SDS011;7545;52.092;7.006;2023-07-13T05:34:28;7.53;;;2.08;;
14907;SDS011;7545;52.092;7.006;2023-07-13T05:36:54;4.80;;;2.70;;
14907;SDS011;7545;52.092;7.006;2023-07-13T05:39:19;3.78;;;1.73;;
14907;SDS011;7545;52.092;7.006;2023-07-13T05:41:45;5.97;;;2.22;;
14907;SDS011;7545;52.092;7.006;2023-07-13T05:44:11;9.80;;;2.10;;
14907;SDS011;7545;52.092;7.006;2023-07-13T05:46:36;5.15;;;2.53;;
14907;SDS011;7545;52.092;7.006;2023-07-13T05:49:02;5.50;;;2.13;;
14907;SDS011;7545;52.092;7.006;2023-07-13T05:51:28;5.68;;;2.00;;
14907;SDS011;7545;52.092;7.006;2023-07-13T05:53:54;7.75;;;2.60;;
14907;SDS011;7545;52.092;7.006;2023-07-13T05:56:20;9.40;;;2.28;;
14907;SDS011;7545;52.092;7.006;2023-07-13T05:58:47;4.78;;;2.38;;
14907;SDS011;7545;52.092;7.006;2023-07-13T06:01:14;5.40;;;2.40;;
14907;SDS011;7545;52.092;7.006;2023-07-13T06:03:40;8.55;;;2.95;;
14907;SDS011;7545;52.092;7.006;2023-07-13T06:06:06;4.13;;;2.20;;
14907;SDS011;7545;52.092;7.006;2023-07-13T06:08:33;6.13;;;3.47;;
14907;SDS011;7545;52.092;7.006;2023-07-13T06:11:18;7.30;;;3.05;;
14907;SDS011;7545;52.092;7.006;2023-07-13T06:13:45;9.15;;;2.22;;
14907;SDS011;7545;52.092;7.006;2023-07-13T06:16:11;7.68;;;2.85;;
14907;SDS011;7545;52.092;7.006;2023-07-13T06:18:37;7.72;;;2.70;;
14907;SDS011;7545;52.092;7.006;2023-07-13T06:21:11;6.25;;;2.13;;
14907;SDS011;7545;52.092;7.006;2023-07-13T06:23:43;6.90;;;3.13;;
14907;SDS011;7545;52.092;7.006;2023-07-13T06:26:10;6.35;;;2.20;;
14907;SDS011;7545;52.092;7.006;2023-07-13T06:28:36;10.07;;;3.03;;
14907;SDS011;7545;52.092;7.006;2023-07-13T06:31:04;5.72;;;2.95;;
14907;SDS011;7545;52.092;7.006;2023-07-13T06:33:31;6.53;;;2.92;;
14907;SDS011;7545;52.092;7.006;2023-07-13T06:35:57;8.10;;;3.35;;
14907;SDS011;7545;52.092;7.006;2023-07-13T06:38:23;9.95;;;5.05;;
14907;SDS011;7545;52.092;7.006;2023-07-13T06:40:48;10.00;;;4.28;;
14907;SDS011;7545;52.092;7.006;2023-07-13T06:43:14;8.75;;;3.88;;
14907;SDS011;7545;52.092;7.006;2023-07-13T06:45:41;7.53;;;4.20;;
14907;SDS011;7545;52.092;7.006;2023-07-13T06:48:10;7.95;;;3.92;;
14907;SDS011;7545;52.092;7.006;2023-07-13T06:50:36;8.15;;;4.47;;
14907;SDS011;7545;52.092;7.006;2023-07-13T06:53:02;8.77;;;3.97;;
14907;SDS011;7545;52.092;7.006;2023-07-13T06:55:27;8.73;;;3.88;;
14907;SDS011;7545;52.092;7.006;2023-07-13T06:57:53;8.68;;;3.63;;
14907;SDS011;7545;52.092;7.006;2023-07-13T07:00:18;10.25;;;4.72;;
14907;SDS011;7545;52.092;7.006;2023-07-13T07:02:44;11.40;;;4.97;;
14907;SDS011;7545;52.092;7.006;2023-07-13T07:05:09;11.88;;;4.70;;
14907;SDS011;7545;52.092;7.006;2023-07-13T07:07:35;9.93;;;4.15;;
14907;SDS011;7545;52.092;7.006;2023-07-13T07:10:01;10.95;;;4.57;;
14907;SDS011;7545;52.092;7.006;2023-07-13T07:12:28;9.05;;;4.53;;
14907;SDS011;7545;52.092;7.006;2023-07-13T07:14:54;9.27;;;4.80;;
14907;SDS011;7545;52.092;7.006;2023-07-13T07:17:19;9.40;;;4.95;;
14907;SDS011;7545;52.092;7.006;2023-07-13T07:19:45;11.00;;;4.88;;
14907;SDS011;7545;52.092;7.006;2023-07-13T07:22:10;12.02;;;4.65;;
14907;SDS011;7545;52.092;7.006;2023-07-13T07:24:36;8.02;;;4.50;;
14907;SDS011;7545;52.092;7.006;2023-07-13T07:27:02;9.95;;;4.40;;
14907;SDS011;7545;52.092;7.006;2023-07-13T07:29:28;8.60;;;4.20;;
14907;SDS011;7545;52.092;7.006;2023-07-13T07:31:53;9.35;;;4.55;;
14907;SDS011;7545;52.092;7.006;2023-07-13T07:34:19;10.57;;;6.05;;
14907;SDS011;7545;52.092;7.006;2023-07-13T07:36:45;10.80;;;4.65;;
14907;SDS011;7545;52.092;7.006;2023-07-13T07:39:11;9.77;;;4.53;;
14907;SDS011;7545;52.092;7.006;2023-07-13T07:41:37;13.23;;;5.55;;
14907;SDS011;7545;52.092;7.006;2023-07-13T07:44:03;9.98;;;5.95;;
14907;SDS011;7545;52.092;7.006;2023-07-13T07:46:28;11.50;;;5.45;;
14907;SDS011;7545;52.092;7.006;2023-07-13T07:48:55;8.73;;;5.10;;
14907;SDS011;7545;52.092;7.006;2023-07-13T07:51:21;10.13;;;5.53;;
14907;SDS011;7545;52.092;7.006;2023-07-13T07:53:47;15.23;;;4.90;;
14907;SDS011;7545;52.092;7.006;2023-07-13T07:56:13;5.75;;;4.53;;
14907;SDS011;7545;52.092;7.006;2023-07-13T07:58:41;8.27;;;4.85;;
14907;SDS011;7545;52.092;7.006;2023-07-13T08:01:07;13.45;;;5.00;;
14907;SDS011;7545;52.092;7.006;2023-07-13T08:03:33;12.68;;;5.22;;
14907;SDS011;7545;52.092;7.006;2023-07-13T08:05:59;11.98;;;4.80;;
14907;SDS011;7545;52.092;7.006;2023-07-13T08:08:24;7.35;;;4.63;;
14907;SDS011;7545;52.092;7.006;2023-07-13T08:10:50;7.40;;;4.57;;
14907;SDS011;7545;52.092;7.006;2023-07-13T08:13:16;11.38;;;5.85;;
14907;SDS011;7545;52.092;7.006;2023-07-13T08:15:42;12.50;;;5.65;;
14907;SDS011;7545;52.092;7.006;2023-07-13T08:18:08;8.40;;;4.78;;
14907;SDS011;7545;52.092;7.006;2023-07-13T08:20:36;12.88;;;6.15;;
14907;SDS011;7545;52.092;7.006;2023-07-13T08:23:03;13.73;;;5.15;;
14907;SDS011;7545;52.092;7.006;2023-07-13T08:25:29;9.63;;;4.47;;
14907;SDS011;7545;52.092;7.006;2023-07-13T08:27:54;9.93;;;5.20;;
14907;SDS011;7545;52.092;7.006;2023-07-13T08:30:20;8.00;;;4.60;;
14907;SDS011;7545;52.092;7.006;2023-07-13T08:32:46;7.70;;;4.35;;
14907;SDS011;7545;52.092;7.006;2023-07-13T08:35:11;7.47;;;3.88;;
14907;SDS011;7545;52.092;7.006;2023-07-13T08:37:38;8.27;;;4.68;;
14907;SDS011;7545;52.092;7.006;2023-07-13T08:40:04;8.20;;;4.28;;
14907;SDS011;7545;52.092;7.006;2023-07-13T08:45:28;7.50;;;5.13;;
14907;SDS011;7545;52.092;7.006;2023-07-13T08:48:15;11.40;;;5.15;;
14907;SDS011;7545;52.092;7.006;2023-07-13T08:50:58;10.40;;;4.97;;
14907;SDS011;7545;52.092;7.006;2023-07-13T08:53:49;9.75;;;4.63;;
14907;SDS011;7545;52.092;7.006;2023-07-13T08:56:18;7.80;;;4.45;;
14907;SDS011;7545;52.092;7.006;2023-07-13T08:58:47;11.13;;;5.30;;
14907;SDS011;7545;52.092;7.006;2023-07-13T09:12:35;8.00;;;5.32;;
14907;SDS011;7545;52.092;7.006;2023-07-13T09:15:31;10.63;;;5.10;;
14907;SDS011;7545;52.092;7.006;2023-07-13T09:18:04;13.25;;;5.32;;
14907;SDS011;7545;52.092;7.006;2023-07-13T09:23:43;12.45;;;5.68;;
14907;SDS011;7545;52.092;7.006;2023-07-13T09:26:22;7.32;;;4.70;;
14907;SDS011;7545;52.092;7.006;2023-07-13T09:28:53;11.05;;;5.10;;
14907;SDS011;7545;52.092;7.006;2023-07-13T09:31:34;10.13;;;4.72;;
14907;SDS011;7545;52.092;7.006;2023-07-13T09:34:08;12.32;;;4.70;;
14907;SDS011;7545;52.092;7.006;2023-07-13T09:36:35;9.50;;;4.68;;
14907;SDS011;7545;52.092;7.006;2023-07-13T09:39:05;12.90;;;5.25;;
14907;SDS011;7545;52.092;7.006;2023-07-13T09:44:17;6.85;;;4.43;;
14907;SDS011;7545;52.092;7.006;2023-07-13T09:46:53;10.40;;;4.68;;
14907;SDS011;7545;52.092;7.006;2023-07-13T09:49:24;6.85;;;3.97;;
14907;SDS011;7545;52.092;7.006;2023-07-13T09:51:57;7.28;;;4.68;;
14907;SDS011;7545;52.092;7.006;2023-07-13T09:54:25;11.02;;;4.40;;
14907;SDS011;7545;52.092;7.006;2023-07-13T09:56:57;7.35;;;4.03;;
14907;SDS011;7545;52.092;7.006;2023-07-13T09:59:26;9.98;;;4.85;;
14907;SDS011;7545;52.092;7.006;2023-07-13T10:01:54;8.10;;;4.22;;
14907;SDS011;7545;52.092;7.006;2023-07-13T10:04:21;7.35;;;4.07;;
14907;SDS011;7545;52.092;7.006;2023-07-13T10:06:52;11.20;;;4.22;;
14907;SDS011;7545;52.092;7.006;2023-07-13T10:09:34;7.60;;;4.25;;
14907;SDS011;7545;52.092;7.006;2023-07-13T10:12:00;9.35;;;3.67;;
14907;SDS011;7545;52.092;7.006;2023-07-13T10:14:26;6.97;;;4.00;;
14907;SDS011;7545;52.092;7.006;2023-07-13T10:16:57;11.15;;;4.55;;
14907;SDS011;7545;52.092;7.006;2023-07-13T10:19:27;9.65;;;4.40;;
14907;SDS011;7545;52.092;7.006;2023-07-13T10:22:12;8.48;;;3.80;;
14907;SDS011;7545;52.092;7.006;2023-07-13T10:24:48;8.20;;;3.58;;
14907;SDS011;7545;52.092;7.006;2023-07-13T10:27:17;5.93;;;3.40;;
14907;SDS011;7545;52.092;7.006;2023-07-13T10:32:54;12.18;;;3.95;;
14907;SDS011;7545;52.092;7.006;2023-07-13T10:35:23;7.10;;;3.10;;
14907;SDS011;7545;52.092;7.006;2023-07-13T10:40:27;9.95;;;4.00;;
14907;SDS011;7545;52.092;7.006;2023-07-13T10:43:00;6.93;;;3.05;;
14907;SDS011;7545;52.092;7.006;2023-07-13T10:45:33;6.53;;;3.30;;
14907;SDS011;7545;52.092;7.006;2023-07-13T10:48:01;4.97;;;2.63;;
14907;SDS011;7545;52.092;7.006;2023-07-13T10:50:28;8.55;;;2.75;;
14907;SDS011;7545;52.092;7.006;2023-07-13T10:53:17;8.57;;;2.50;;
14907;SDS011;7545;52.092;7.006;2023-07-13T11:03:38;8.18;;;3.47;;
14907;SDS011;7545;52.092;7.006;2023-07-13T11:06:13;9.55;;;3.13;;
14907;SDS011;7545;52.092;7.006;2023-07-13T11:11:56;6.63;;;2.90;;
14907;SDS011;7545;52.092;7.006;2023-07-13T11:14:35;6.45;;;3.10;;
14907;SDS011;7545;52.092;7.006;2023-07-13T11:17:23;9.43;;;3.25;;
14907;SDS011;7545;52.092;7.006;2023-07-13T11:19:50;8.65;;;3.25;;
14907;SDS011;7545;52.092;7.006;2023-07-13T11:22:21;6.20;;;3.08;;
14907;SDS011;7545;52.092;7.006;2023-07-13T11:24:52;6.18;;;3.50;;
14907;SDS011;7545;52.092;7.006;2023-07-13T11:27:34;10.45;;;4.13;;
14907;SDS011;7545;52.092;7.006;2023-07-13T11:30:19;5.05;;;3.95;;
14907;SDS011;7545;52.092;7.006;2023-07-13T11:32:46;9.70;;;5.22;;
14907;SDS011;7545;52.092;7.006;2023-07-13T11:35:38;8.95;;;5.60;;
14907;SDS011;7545;52.092;7.006;2023-07-13T11:38:32;8.75;;;4.10;;
14907;SDS011;7545;52.092;7.006;2023-07-13T11:43:50;7.68;;;4.95;;
14907;SDS011;7545;52.092;7.006;2023-07-13T11:46:20;9.23;;;4.78;;
14907;SDS011;7545;52.092;7.006;2023-07-13T11:48:49;9.38;;;3.50;;
14907;SDS011;7545;52.092;7.006;2023-07-13T11:51:25;7.28;;;4.30;;
14907;SDS011;7545;52.092;7.006;2023-07-13T11:53:55;6.63;;;3.58;;
14907;SDS011;7545;52.092;7.006;2023-07-13T11:56:24;5.68;;;3.22;;
14907;SDS011;7545;52.092;7.006;2023-07-13T11:58:51;5.40;;;2.92;;
14907;SDS011;7545;52.092;7.006;2023-07-13T12:01:27;5.47;;;2.70;;
14907;SDS011;7545;52.092;7.006;2023-07-13T12:03:57;6.22;;;2.95;;
14907;SDS011;7545;52.092;7.006;2023-07-13T12:06:32;8.35;;;3.50;;
14907;SDS011;7545;52.092;7.006;2023-07-13T12:09:10;8.50;;;3.85;;
14907;SDS011;7545;52.092;7.006;2023-07-13T12:11:44;4.03;;;2.97;;
14907;SDS011;7545;52.092;7.006;2023-07-13T12:14:13;7.07;;;2.92;;
14907;SDS011;7545;52.092;7.006;2023-07-13T12:16:43;4.15;;;3.00;;
14907;SDS011;7545;52.092;7.006;2023-07-13T12:19:23;4.25;;;2.22;;
14907;SDS011;7545;52.092;7.006;2023-07-13T12:21:56;5.82;;;2.58;;
14907;SDS011;7545;52.092;7.006;2023-07-13T12:24:23;3.13;;;2.30;;
14907;SDS011;7545;52.092;7.006;2023-07-13T12:26:53;3.67;;;2.40;;
14907;SDS011;7545;52.092;7.006;2023-07-13T12:29:23;7.15;;;2.28;;
14907;SDS011;7545;52.092;7.006;2023-07-13T12:31:49;3.75;;;2.40;;
14907;SDS011;7545;52.092;7.006;2023-07-13T12:34:16;4.30;;;2.20;;
14907;SDS011;7545;52.092;7.006;2023-07-13T12:36:53;4.82;;;2.60;;
14907;SDS011;7545;52.092;7.006;2023-07-13T12:39:37;3.88;;;2.30;;
14907;SDS011;7545;52.092;7.006;2023-07-13T12:42:19;3.10;;;2.45;;
14907;SDS011;7545;52.092;7.006;2023-07-13T12:44:54;4.40;;;2.72;;
14907;SDS011;7545;52.092;7.006;2023-07-13T12:47:24;5.97;;;3.30;;
14907;SDS011;7545;52.092;7.006;2023-07-13T12:49:54;5.25;;;3.28;;
14907;SDS011;7545;52.092;7.006;2023-07-13T12:52:23;6.43;;;3.80;;
14907;SDS011;7545;52.092;7.006;2023-07-13T12:54:58;6.40;;;3.20;;
14907;SDS011;7545;52.092;7.006;2023-07-13T12:57:49;4.55;;;3.10;;
14907;SDS011;7545;52.092;7.006;2023-07-13T13:00:25;5.97;;;3.40;;
14907;SDS011;7545;52.092;7.006;2023-07-13T13:02:56;7.35;;;3.90;;
14907;SDS011;7545;52.092;7.006;2023-07-13T13:05:25;3.17;;;2.88;;
14907;SDS011;7545;52.092;7.006;2023-07-13T13:07:52;3.92;;;2.97;;
14907;SDS011;7545;52.092;7.006;2023-07-13T13:10:17;5.55;;;3.10;;
14907;SDS011;7545;52.092;7.006;2023-07-13T13:12:43;7.53;;;4.18;;
14907;SDS011;7545;52.092;7.006;2023-07-13T13:15:09;5.13;;;4.28;;
14907;SDS011;7545;52.092;7.006;2023-07-13T13:17:39;5.97;;;4.25;;
14907;SDS011;7545;52.092;7.006;2023-07-13T13:20:26;7.57;;;4.35;;
14907;SDS011;7545;52.092;7.006;2023-07-13T13:22:51;6.00;;;4.60;;
14907;SDS011;7545;52.092;7.006;2023-07-13T13:25:17;9.00;;;5.22;;
14907;SDS011;7545;52.092;7.006;2023-07-13T13:27:43;6.75;;;4.88;;
14907;SDS011;7545;52.092;7.006;2023-07-13T13:30:17;8.95;;;5.13;;
14907;SDS011;7545;52.092;7.006;2023-07-13T13:32:44;7.20;;;4.78;;
14907;SDS011;7545;52.092;7.006;2023-07-13T13:35:15;10.40;;;5.00;;
14907;SDS011;7545;52.092;7.006;2023-07-13T13:37:42;6.15;;;4.70;;
14907;SDS011;7545;52.092;7.006;2023-07-13T13:40:13;6.63;;;5.15;;
14907;SDS011;7545;52.092;7.006;2023-07-13T13:42:40;6.93;;;4.25;;
14907;SDS011;7545;52.092;7.006;2023-07-13T13:45:07;5.55;;;4.20;;
14907;SDS011;7545;52.092;7.006;2023-07-13T13:47:37;6.55;;;3.85;;
14907;SDS011;7545;52.092;7.006;2023-07-13T13:50:22;6.80;;;3.95;;
14907;SDS011;7545;52.092;7.006;2023-07-13T13:52:48;4.25;;;3.85;;
14907;SDS011;7545;52.092;7.006;2023-07-13T13:55:14;8.38;;;4.22;;
14907;SDS011;7545;52.092;7.006;2023-07-13T13:57:43;6.15;;;3.60;;
14907;SDS011;7545;52.092;7.006;2023-07-13T14:00:10;7.90;;;3.97;;
14907;SDS011;7545;52.092;7.006;2023-07-13T14:02:39;5.68;;;3.58;;
14907;SDS011;7545;52.092;7.006;2023-07-13T14:05:09;5.68;;;3.83;;
14907;SDS011;7545;52.092;7.006;2023-07-13T14:07:36;5.38;;;4.13;;
14907;SDS011;7545;52.092;7.006;2023-07-13T14:10:08;6.68;;;3.85;;
14907;SDS011;7545;52.092;7.006;2023-07-13T14:12:40;5.60;;;3.95;;
14907;SDS011;7545;52.092;7.006;2023-07-13T14:15:12;5.15;;;3.63;;
14907;SDS011;7545;52.092;7.006;2023-07-13T14:17:45;3.58;;;3.00;;
14907;SDS011;7545;52.092;7.006;2023-07-13T14:20:13;6.43;;;3.95;;
14907;SDS011;7545;52.092;7.006;2023-07-13T14:22:40;8.07;;;4.65;;
14907;SDS011;7545;52.092;7.006;2023-07-13T14:25:10;5.38;;;3.70;;
14907;SDS011;7545;52.092;7.006;2023-07-13T14:27:36;5.85;;;3.78;;
14907;SDS011;7545;52.092;7.006;2023-07-13T14:30:02;3.80;;;3.38;;
14907;SDS011;7545;52.092;7.006;2023-07-13T14:32:28;5.70;;;3.70;;
14907;SDS011;7545;52.092;7.006;2023-07-13T14:34:53;6.72;;;2.50;;
14907;SDS011;7545;52.092;7.006;2023-07-13T14:37:19;4.18;;;2.60;;
14907;SDS011;7545;52.092;7.006;2023-07-13T14:39:44;3.38;;;2.30;;
14907;SDS011;7545;52.092;7.006;2023-07-13T14:42:16;3.78;;;2.00;;
14907;SDS011;7545;52.092;7.006;2023-07-13T14:44:42;3.38;;;1.75;;
14907;SDS011;7545;52.092;7.006;2023-07-13T14:47:08;4.60;;;2.13;;
14907;SDS011;7545;52.092;7.006;2023-07-13T14:49:40;3.08;;;1.70;;
14907;SDS011;7545;52.092;7.006;2023-07-13T14:52:16;2.55;;;1.60;;
14907;SDS011;7545;52.092;7.006;2023-07-13T14:54:43;2.08;;;1.60;;
14907;SDS011;7545;52.092;7.006;2023-07-13T14:57:11;2.33;;;1.58;;
14907;SDS011;7545;52.092;7.006;2023-07-13T14:59:41;2.60;;;1.52;;
14907;SDS011;7545;52.092;7.006;2023-07-13T15:02:27;2.90;;;1.42;;
14907;SDS011;7545;52.092;7.006;2023-07-13T15:04:55;2.83;;;1.27;;
14907;SDS011;7545;52.092;7.006;2023-07-13T15:07:21;2.97;;;1.40;;
14907;SDS011;7545;52.092;7.006;2023-07-13T15:09:48;2.65;;;1.38;;
14907;SDS011;7545;52.092;7.006;2023-07-13T15:12:15;3.47;;;1.88;;
14907;SDS011;7545;52.092;7.006;2023-07-13T15:14:41;2.47;;;1.67;;
14907;SDS011;7545;52.092;7.006;2023-07-13T15:17:22;1.73;;;1.38;;
14907;SDS011;7545;52.092;7.006;2023-07-13T15:19:52;3.20;;;1.88;;
14907;SDS011;7545;52.092;7.006;2023-07-13T15:22:18;2.58;;;1.55;;
14907;SDS011;7545;52.092;7.006;2023-07-13T15:24:44;3.88;;;1.60;;
14907;SDS011;7545;52.092;7.006;2023-07-13T15:27:13;2.53;;;1.30;;
14907;SDS011;7545;52.092;7.006;2023-07-13T15:29:38;3.75;;;1.60;;
14907;SDS011;7545;52.092;7.006;2023-07-13T15:32:10;2.75;;;1.80;;
14907;SDS011;7545;52.092;7.006;2023-07-13T15:34:40;3.00;;;1.67;;
14907;SDS011;7545;52.092;7.006;2023-07-13T15:37:15;6.32;;;1.70;;
14907;SDS011;7545;52.092;7.006;2023-07-13T15:39:41;2.58;;;1.63;;
14907;SDS011;7545;52.092;7.006;2023-07-13T15:42:14;4.25;;;1.60;;
14907;SDS011;7545;52.092;7.006;2023-07-13T15:44:41;3.05;;;1.42;;
14907;SDS011;7545;52.092;7.006;2023-07-13T15:47:09;5.97;;;1.60;;
14907;SDS011;7545;52.092;7.006;2023-07-13T15:49:38;2.75;;;1.50;;
14907;SDS011;7545;52.092;7.006;2023-07-13T15:52:04;2.55;;;1.45;;
14907;SDS011;7545;52.092;7.006;2023-07-13T15:54:35;2.55;;;1.65;;